createdAt,value
2019-05-14T00:00:27.187Z,9.20
2019-05-14T00:03:17.226Z,9.10
2019-05-14T00:06:07.550Z,8.97
2019-05-14T00:08:57.898Z,9.37
2019-05-14T00:11:48.331Z,9.40
2019-05-14T00:14:40.153Z,9.30
2019-05-14T00:17:32.122Z,9.57
2019-05-14T00:20:22.705Z,10.10
2019-05-14T00:23:13.186Z,10.63
2019-05-14T00:26:03.380Z,10.40
2019-05-14T00:28:53.337Z,10.67
2019-05-14T00:31:43.442Z,10.17
2019-05-14T00:34:33.823Z,11.20
2019-05-14T00:37:23.883Z,10.77
2019-05-14T00:40:14.100Z,11.00
2019-05-14T00:43:04.220Z,10.97
2019-05-14T00:45:54.356Z,11.17
2019-05-14T00:48:44.761Z,11.93
2019-05-14T00:51:35.284Z,11.63
2019-05-14T00:54:25.474Z,11.03
2019-05-14T00:57:15.826Z,10.67
2019-05-14T01:00:06.116Z,10.50
2019-05-14T01:02:56.392Z,11.30
2019-05-14T01:05:46.392Z,11.47
2019-05-14T01:08:36.645Z,11.33
2019-05-14T01:11:26.661Z,10.87
2019-05-14T01:14:17.139Z,10.30
2019-05-14T01:17:07.607Z,10.90
2019-05-14T01:19:57.876Z,10.27
2019-05-14T01:22:47.825Z,10.77
2019-05-14T01:25:38.156Z,10.90
2019-05-14T01:28:28.451Z,11.33
2019-05-14T01:31:18.471Z,11.10
2019-05-14T01:34:11.033Z,11.60
2019-05-14T01:37:02.529Z,11.37
2019-05-14T01:39:52.713Z,11.40
2019-05-14T01:42:42.999Z,11.00
2019-05-14T01:45:33.477Z,11.47
2019-05-14T01:48:23.767Z,10.83
2019-05-14T01:51:14.227Z,11.43
2019-05-14T01:54:04.520Z,10.93
2019-05-14T01:56:54.704Z,11.77
2019-05-14T01:59:44.902Z,12.13
2019-05-14T02:02:35.218Z,11.70
2019-05-14T02:05:25.559Z,11.00
2019-05-14T02:08:15.762Z,11.87
2019-05-14T02:11:06.091Z,11.37
2019-05-14T02:13:56.235Z,11.07
2019-05-14T02:16:51.182Z,12.53
2019-05-14T02:19:42.800Z,11.87
2019-05-14T02:22:34.603Z,12.40
2019-05-14T02:25:24.744Z,10.83
2019-05-14T02:28:14.949Z,11.53
2019-05-14T02:31:05.145Z,11.53
2019-05-14T02:33:55.501Z,11.53
2019-05-14T02:36:45.698Z,11.60
2019-05-14T02:39:36.029Z,12.53
2019-05-14T02:42:28.877Z,12.70
2019-05-14T02:45:19.997Z,12.00
2019-05-14T02:48:10.055Z,13.00
2019-05-14T02:51:00.221Z,12.90
2019-05-14T02:53:50.541Z,12.23
2019-05-14T02:56:41.574Z,12.47
2019-05-14T02:59:31.785Z,12.83
2019-05-14T03:02:23.196Z,13.77
2019-05-14T03:05:13.402Z,13.93
2019-05-14T03:08:03.915Z,13.03
2019-05-14T03:10:53.947Z,12.80
2019-05-14T03:13:45.049Z,12.87
2019-05-14T03:16:40.097Z,12.83
2019-05-14T03:19:29.768Z,12.57
2019-05-14T03:22:26.560Z,13.00
2019-05-14T03:25:11.654Z,11.63
2019-05-14T03:28:01.919Z,12.30
2019-05-14T03:30:53.356Z,12.83
2019-05-14T03:33:44.978Z,12.97
2019-05-14T03:36:35.977Z,13.20
2019-05-14T03:39:29.412Z,12.77
2019-05-14T03:42:19.311Z,13.07
2019-05-14T03:45:10.864Z,13.77
2019-05-14T03:48:00.960Z,13.60
2019-05-14T03:50:51.278Z,13.97
2019-05-14T03:53:55.109Z,12.93
2019-05-14T03:56:32.976Z,13.77
2019-05-14T03:59:23.500Z,13.70
2019-05-14T04:02:13.661Z,13.90
2019-05-14T04:05:04.160Z,13.73
2019-05-14T04:07:54.218Z,13.43
2019-05-14T04:10:51.848Z,14.00
2019-05-14T04:13:40.609Z,14.33
2019-05-14T04:16:30.447Z,13.37
2019-05-14T04:19:20.753Z,13.33
2019-05-14T04:22:12.069Z,13.43
2019-05-14T04:25:02.143Z,12.67
2019-05-14T04:27:52.133Z,12.63
2019-05-14T04:30:42.389Z,12.70
2019-05-14T04:33:32.627Z,11.80
2019-05-14T04:36:22.658Z,13.27
2019-05-14T04:39:13.141Z,12.67
2019-05-14T04:42:03.250Z,13.47
2019-05-14T04:44:53.273Z,13.70
2019-05-14T04:47:43.558Z,13.57
2019-05-14T04:50:33.860Z,13.07
2019-05-14T04:53:24.012Z,12.00
2019-05-14T04:56:14.135Z,13.03
2019-05-14T04:59:04.357Z,12.30
2019-05-14T05:01:54.475Z,12.40
2019-05-14T05:04:44.964Z,11.77
2019-05-14T05:07:39.418Z,12.90
2019-05-14T05:10:29.789Z,11.53
2019-05-14T05:13:20.238Z,12.20
2019-05-14T05:16:10.687Z,12.03
2019-05-14T05:19:00.751Z,11.53
2019-05-14T05:21:51.036Z,11.50
2019-05-14T05:24:41.783Z,12.17
2019-05-14T05:27:32.003Z,11.27
2019-05-14T05:30:22.263Z,10.83
2019-05-14T05:33:12.613Z,11.47
2019-05-14T05:36:02.774Z,11.33
2019-05-14T05:38:52.833Z,10.53
2019-05-14T05:41:43.299Z,9.60
2019-05-14T05:44:33.505Z,10.33
2019-05-14T05:47:24.733Z,10.37
2019-05-14T05:50:14.893Z,10.77
2019-05-14T05:53:05.133Z,9.67
2019-05-14T05:55:55.442Z,10.73
2019-05-14T05:58:45.746Z,10.40
2019-05-14T06:01:42.843Z,11.53
2019-05-14T06:04:29.164Z,10.87
2019-05-14T06:07:19.544Z,11.70
2019-05-14T06:10:09.909Z,11.87
2019-05-14T06:13:00.170Z,11.80
2019-05-14T06:15:52.253Z,10.97
2019-05-14T06:18:43.637Z,11.27
2019-05-14T06:21:33.977Z,11.00
2019-05-14T06:24:24.463Z,11.07
2019-05-14T06:27:14.602Z,11.70
2019-05-14T06:30:05.932Z,12.10
2019-05-14T06:32:55.916Z,11.27
2019-05-14T06:35:48.395Z,11.27
2019-05-14T06:38:38.795Z,11.00
2019-05-14T06:41:29.297Z,12.13
2019-05-14T06:44:19.835Z,10.87
2019-05-14T06:47:11.091Z,11.90
2019-05-14T06:50:01.537Z,11.57
2019-05-14T06:52:51.908Z,11.17
2019-05-14T06:55:42.318Z,11.20
2019-05-14T06:58:32.715Z,10.77
2019-05-14T07:01:22.914Z,10.37
2019-05-14T07:04:13.214Z,8.60
2019-05-14T07:07:03.490Z,9.70
2019-05-14T07:09:53.707Z,8.70
2019-05-14T07:12:43.767Z,8.67
2019-05-14T07:15:33.912Z,8.60
2019-05-14T07:18:24.423Z,8.60
2019-05-14T07:21:14.423Z,8.13
2019-05-14T07:24:04.534Z,8.10
2019-05-14T07:26:55.020Z,8.37
2019-05-14T07:29:45.399Z,8.37
2019-05-14T07:32:35.705Z,7.90
2019-05-14T07:35:25.998Z,7.73
2019-05-14T07:38:16.272Z,8.17
2019-05-14T07:41:08.945Z,7.50
2019-05-14T07:43:58.709Z,7.70
2019-05-14T07:46:49.625Z,7.37
2019-05-14T07:49:40.404Z,6.97
2019-05-14T07:52:31.325Z,7.40
2019-05-14T07:55:22.161Z,7.15
2019-05-14T07:58:13.031Z,7.12
2019-05-14T08:01:03.682Z,6.70
2019-05-14T08:03:54.744Z,6.87
2019-05-14T08:06:45.492Z,7.40
2019-05-14T08:09:38.731Z,6.70
2019-05-14T08:12:29.016Z,6.97
2019-05-14T08:15:22.453Z,7.08
2019-05-14T08:18:14.482Z,7.33
2019-05-14T08:21:05.661Z,8.08
2019-05-14T08:23:59.105Z,8.00
2019-05-14T08:26:49.460Z,7.65
2019-05-14T08:29:40.302Z,7.97
2019-05-14T08:32:30.468Z,7.90
2019-05-14T08:35:20.643Z,7.43
2019-05-14T08:38:12.275Z,8.30
2019-05-14T08:41:02.659Z,7.30
2019-05-14T08:43:53.014Z,7.73
2019-05-14T08:46:45.079Z,7.83
2019-05-14T08:49:42.606Z,8.30
2019-05-14T08:52:28.793Z,8.00
2019-05-14T08:55:18.513Z,8.57
2019-05-14T08:58:13.478Z,8.27
2019-05-14T09:01:00.471Z,8.43
2019-05-14T09:03:50.737Z,9.30
2019-05-14T09:06:41.225Z,9.40
2019-05-14T09:09:32.605Z,8.70
2019-05-14T09:12:23.082Z,8.80
2019-05-14T09:15:13.470Z,7.77
2019-05-14T09:18:04.043Z,7.60
2019-05-14T09:20:54.340Z,7.45
2019-05-14T09:23:45.333Z,7.72
2019-05-14T09:26:36.219Z,7.95
2019-05-14T09:29:29.827Z,8.13
2019-05-14T09:32:19.497Z,8.10
2019-05-14T09:35:10.800Z,7.90
2019-05-14T09:38:01.487Z,8.80
2019-05-14T09:41:07.117Z,7.42
2019-05-14T09:43:44.605Z,8.58
2019-05-14T09:46:35.331Z,8.43
2019-05-14T09:49:28.263Z,8.55
2019-05-14T09:52:18.782Z,8.90
2019-05-14T09:55:09.908Z,8.50
2019-05-14T09:58:01.892Z,7.92
2019-05-14T10:00:52.677Z,8.88
2019-05-14T10:03:43.708Z,8.20
2019-05-14T10:06:34.559Z,7.80
2019-05-14T10:09:25.609Z,8.45
2019-05-14T10:12:16.625Z,8.08
2019-05-14T10:15:09.758Z,8.50
2019-05-14T10:18:00.786Z,8.00
2019-05-14T10:20:52.274Z,8.03
2019-05-14T10:23:47.665Z,8.75
2019-05-14T10:26:43.410Z,7.97
2019-05-14T10:29:35.520Z,8.50
2019-05-14T10:32:29.311Z,8.28
2019-05-14T10:35:19.174Z,8.37
2019-05-14T10:38:09.402Z,9.03
2019-05-14T10:40:59.702Z,8.10
2019-05-14T10:43:50.510Z,9.05
2019-05-14T10:46:40.957Z,8.57
2019-05-14T10:49:31.397Z,9.30
2019-05-14T10:52:21.760Z,9.70
2019-05-14T10:55:12.269Z,10.03
2019-05-14T10:58:02.184Z,10.67
2019-05-14T11:00:52.507Z,10.90
2019-05-14T11:03:42.684Z,10.87
2019-05-14T11:06:32.839Z,10.93
2019-05-14T11:09:23.070Z,10.83
2019-05-14T11:12:13.430Z,10.97
2019-05-14T11:15:03.764Z,11.50
2019-05-14T11:17:54.206Z,11.20
2019-05-14T11:20:44.337Z,10.70
2019-05-14T11:23:34.641Z,10.60
2019-05-14T11:26:25.121Z,10.73
2019-05-14T11:29:15.417Z,10.37
2019-05-14T11:32:05.689Z,11.60
2019-05-14T11:34:55.952Z,11.67
2019-05-14T11:37:48.016Z,11.20
2019-05-14T11:40:38.685Z,11.70
2019-05-14T11:43:29.065Z,10.83
2019-05-14T11:46:33.645Z,11.80
2019-05-14T11:49:11.276Z,11.10
2019-05-14T11:52:07.874Z,11.07
2019-05-14T11:54:53.252Z,11.80
2019-05-14T11:57:43.539Z,11.47
2019-05-14T12:00:33.560Z,11.67
2019-05-14T12:03:23.927Z,11.60
2019-05-14T12:06:14.219Z,11.07
2019-05-14T12:09:06.219Z,12.03
2019-05-14T12:11:58.490Z,11.40
2019-05-14T12:14:48.478Z,11.30
2019-05-14T12:17:39.612Z,11.17
2019-05-14T12:20:30.036Z,11.73
2019-05-14T12:23:20.162Z,11.00
2019-05-14T12:26:11.375Z,11.13
2019-05-14T12:29:01.622Z,10.50
2019-05-14T12:31:51.860Z,10.73
2019-05-14T12:34:42.347Z,12.10
2019-05-14T12:37:32.513Z,12.20
2019-05-14T12:40:22.767Z,11.60
2019-05-14T12:43:13.142Z,11.37
2019-05-14T12:46:03.350Z,12.20
2019-05-14T12:48:54.381Z,12.30
2019-05-14T12:51:44.484Z,11.57
2019-05-14T12:54:34.574Z,13.23
2019-05-14T12:57:24.923Z,11.80
2019-05-14T13:00:15.325Z,12.37
2019-05-14T13:03:05.819Z,11.53
2019-05-14T13:05:58.585Z,11.13
2019-05-14T13:08:49.295Z,12.03
2019-05-14T13:11:41.609Z,12.73
2019-05-14T13:14:31.962Z,11.70
2019-05-14T13:17:22.043Z,12.03
2019-05-14T13:20:14.069Z,10.87
2019-05-14T13:23:05.426Z,11.77
2019-05-14T13:25:58.413Z,11.57
2019-05-14T13:28:50.669Z,11.70
2019-05-14T13:31:38.939Z,11.67
2019-05-14T13:34:29.370Z,12.23
2019-05-14T13:37:19.523Z,12.50
2019-05-14T13:40:13.539Z,11.60
2019-05-14T13:43:01.484Z,11.97
2019-05-14T13:45:51.587Z,13.13
2019-05-14T13:48:43.292Z,12.90
2019-05-14T13:51:33.911Z,12.10
2019-05-14T13:54:24.402Z,12.73
2019-05-14T13:57:14.909Z,13.63
2019-05-14T14:00:04.960Z,12.40
2019-05-14T14:02:55.543Z,13.37
2019-05-14T14:05:45.793Z,13.40
2019-05-14T14:08:41.934Z,12.57
2019-05-14T14:11:31.355Z,12.40
2019-05-14T14:14:20.525Z,12.10
2019-05-14T14:17:11.747Z,12.33
2019-05-14T14:20:02.087Z,11.93
2019-05-14T14:22:52.100Z,12.13
2019-05-14T14:25:42.460Z,12.33
2019-05-14T14:28:32.734Z,13.57
2019-05-14T14:31:23.518Z,12.03
2019-05-14T14:34:13.930Z,13.13
2019-05-14T14:37:04.438Z,12.53
2019-05-14T14:39:54.619Z,11.93
2019-05-14T14:42:44.698Z,13.30
2019-05-14T14:45:34.879Z,13.30
2019-05-14T14:48:25.205Z,14.17
2019-05-14T14:51:15.472Z,13.50
2019-05-14T14:54:11.814Z,12.83
2019-05-14T14:56:59.224Z,14.03
2019-05-14T14:59:49.408Z,15.00
2019-05-14T15:02:41.294Z,14.23
2019-05-14T15:05:31.818Z,14.07
2019-05-14T15:08:22.119Z,14.77
2019-05-14T15:11:12.618Z,14.10
2019-05-14T15:14:03.008Z,13.20
2019-05-14T15:16:53.336Z,13.97
2019-05-14T15:19:43.644Z,13.37
2019-05-14T15:22:34.041Z,13.63
2019-05-14T15:25:24.004Z,12.57
2019-05-14T15:28:14.245Z,13.70
2019-05-14T15:31:04.471Z,14.97
2019-05-14T15:33:54.860Z,15.20
2019-05-14T15:36:45.249Z,14.63
2019-05-14T15:39:38.903Z,14.27
2019-05-14T15:42:28.470Z,14.83
2019-05-14T15:45:19.019Z,13.50
2019-05-14T15:48:09.255Z,15.40
2019-05-14T15:50:59.888Z,14.93
2019-05-14T15:54:05.632Z,14.93
2019-05-14T15:56:42.064Z,15.40
2019-05-14T15:59:32.327Z,15.43
2019-05-14T16:02:22.415Z,15.80
2019-05-14T16:05:12.849Z,15.67
2019-05-14T16:08:02.814Z,15.10
2019-05-14T16:10:53.114Z,15.83
2019-05-14T16:13:43.523Z,16.27
2019-05-14T16:16:33.940Z,16.00
2019-05-14T16:19:24.248Z,15.97
2019-05-14T16:22:14.698Z,15.73
2019-05-14T16:25:05.189Z,16.17
2019-05-14T16:27:55.112Z,15.80
2019-05-14T16:30:45.400Z,16.67
2019-05-14T16:33:35.598Z,16.57
2019-05-14T16:36:26.044Z,15.90
2019-05-14T16:39:16.298Z,16.53
2019-05-14T16:42:07.133Z,16.20
2019-05-14T16:44:57.701Z,16.07
2019-05-14T16:47:47.939Z,15.60
2019-05-14T16:50:38.171Z,17.23
2019-05-14T16:53:28.862Z,16.07
2019-05-14T16:56:19.431Z,16.40
2019-05-14T16:59:09.689Z,16.17
2019-05-14T17:01:59.673Z,17.17
2019-05-14T17:04:49.956Z,17.30
2019-05-14T17:07:40.265Z,16.73
2019-05-14T17:10:30.441Z,17.67
2019-05-14T17:13:20.791Z,17.43
2019-05-14T17:16:11.091Z,17.83
2019-05-14T17:19:01.405Z,17.60
2019-05-14T17:21:51.711Z,18.03
2019-05-14T17:24:42.039Z,17.57
2019-05-14T17:27:32.392Z,17.80
2019-05-14T17:30:22.684Z,17.53
2019-05-14T17:33:12.996Z,17.80
2019-05-14T17:36:03.341Z,18.13
2019-05-14T17:38:53.751Z,17.13
2019-05-14T17:41:44.184Z,18.13
2019-05-14T17:44:34.437Z,18.17
2019-05-14T17:47:24.792Z,17.43
2019-05-14T17:50:15.068Z,17.30
2019-05-14T17:53:05.281Z,18.30
2019-05-14T17:55:55.625Z,18.20
2019-05-14T17:58:45.912Z,18.17
2019-05-14T18:01:35.989Z,17.27
2019-05-14T18:04:28.410Z,18.00
2019-05-14T18:07:19.291Z,17.93
2019-05-14T18:10:10.999Z,18.37
2019-05-14T18:13:01.193Z,19.57
2019-05-14T18:15:51.381Z,19.10
2019-05-14T18:18:41.803Z,18.67
2019-05-14T18:21:34.195Z,18.20
2019-05-14T18:24:24.643Z,18.77
2019-05-14T18:27:14.880Z,17.40
2019-05-14T18:30:05.657Z,16.73
2019-05-14T18:32:58.439Z,16.60
2019-05-14T18:35:50.844Z,17.33
2019-05-14T18:38:40.549Z,16.77
2019-05-14T18:41:32.153Z,17.07
2019-05-14T18:44:23.205Z,15.70
2019-05-14T18:47:16.674Z,16.30
2019-05-14T18:50:08.780Z,16.13
2019-05-14T18:52:59.903Z,15.83
2019-05-14T18:55:50.244Z,15.17
2019-05-14T18:58:40.552Z,15.53
2019-05-14T19:01:30.851Z,15.40
2019-05-14T19:04:20.972Z,14.77
2019-05-14T19:07:11.150Z,14.00
2019-05-14T19:10:01.797Z,15.17
2019-05-14T19:12:52.970Z,15.53
2019-05-14T19:15:43.231Z,15.43
2019-05-14T19:18:33.513Z,14.67
2019-05-14T19:21:23.799Z,15.20
2019-05-14T19:24:14.014Z,14.90
2019-05-14T19:27:04.160Z,15.57
2019-05-14T19:29:54.415Z,15.70
2019-05-14T19:32:44.732Z,14.60
2019-05-14T19:35:34.896Z,15.73
2019-05-14T19:38:25.384Z,14.90
2019-05-14T19:41:15.724Z,16.37
2019-05-14T19:44:08.830Z,14.80
2019-05-14T19:46:59.309Z,15.33
2019-05-14T19:49:49.778Z,14.47
2019-05-14T19:52:40.075Z,15.73
2019-05-14T19:55:30.321Z,15.00
2019-05-14T19:58:20.490Z,15.50
2019-05-14T20:01:10.533Z,14.63
2019-05-14T20:04:00.828Z,15.93
2019-05-14T20:06:51.133Z,15.40
2019-05-14T20:09:41.433Z,16.13
2019-05-14T20:12:31.784Z,16.20
2019-05-14T20:15:22.255Z,15.77
2019-05-14T20:18:12.760Z,17.23
2019-05-14T20:21:03.103Z,16.17
2019-05-14T20:23:53.641Z,16.47
2019-05-14T20:26:45.597Z,16.83
2019-05-14T20:29:35.338Z,16.43
2019-05-14T20:32:25.629Z,16.37
2019-05-14T20:35:29.911Z,15.53
2019-05-14T20:38:09.065Z,17.77
2019-05-14T20:40:59.802Z,15.90
2019-05-14T20:43:49.815Z,16.47
2019-05-14T20:46:40.407Z,15.87
2019-05-14T20:49:30.640Z,15.57
2019-05-14T20:52:21.092Z,16.60
2019-05-14T20:55:11.542Z,16.43
2019-05-14T20:58:01.643Z,16.40
2019-05-14T21:00:51.568Z,16.23
2019-05-14T21:03:44.040Z,16.00
2019-05-14T21:06:33.793Z,15.57
2019-05-14T21:09:24.123Z,15.93
2019-05-14T21:12:14.431Z,15.70
2019-05-14T21:15:04.965Z,16.40
2019-05-14T21:17:55.095Z,17.23
2019-05-14T21:20:45.218Z,15.37
2019-05-14T21:23:35.411Z,17.07
2019-05-14T21:26:25.541Z,15.93
2019-05-14T21:29:15.472Z,16.60
2019-05-14T21:32:08.201Z,16.27
2019-05-14T21:34:58.606Z,16.97
2019-05-14T21:37:51.400Z,17.37
2019-05-14T21:40:40.857Z,16.97
2019-05-14T21:43:31.164Z,16.80
2019-05-14T21:46:21.364Z,16.07
2019-05-14T21:49:13.253Z,14.67
2019-05-14T21:52:03.484Z,15.57
2019-05-14T21:54:53.624Z,15.83
2019-05-14T21:57:54.280Z,15.33
2019-05-14T22:00:42.171Z,14.90
2019-05-14T22:03:32.305Z,15.37
2019-05-14T22:06:22.721Z,15.50
2019-05-14T22:09:13.123Z,15.37
2019-05-14T22:12:03.492Z,15.83
2019-05-14T22:14:54.049Z,15.30
2019-05-14T22:17:44.375Z,14.83
2019-05-14T22:20:34.833Z,15.43
2019-05-14T22:23:25.091Z,14.30
2019-05-14T22:26:15.357Z,13.83
2019-05-14T22:29:08.149Z,14.50
2019-05-14T22:31:58.692Z,13.77
2019-05-14T22:34:49.168Z,15.70
2019-05-14T22:37:39.345Z,15.27
2019-05-14T22:40:29.859Z,14.67
2019-05-14T22:43:20.087Z,14.30
2019-05-14T22:46:10.424Z,13.67
2019-05-14T22:49:00.733Z,14.47
2019-05-14T22:51:52.240Z,15.17
2019-05-14T22:54:42.687Z,14.57
2019-05-14T22:57:33.043Z,15.97
2019-05-14T23:00:23.214Z,14.67
2019-05-14T23:03:13.777Z,14.90
2019-05-14T23:06:04.059Z,14.70
2019-05-14T23:08:55.348Z,15.10
2019-05-14T23:11:47.902Z,17.07
2019-05-14T23:14:39.103Z,16.20
2019-05-14T23:17:29.328Z,16.73
2019-05-14T23:20:20.660Z,16.77
2019-05-14T23:23:10.816Z,16.33
2019-05-14T23:26:01.644Z,16.17
2019-05-14T23:28:51.818Z,16.83
2019-05-14T23:31:42.079Z,16.13
2019-05-14T23:34:32.383Z,16.47
2019-05-14T23:37:22.418Z,16.80
2019-05-14T23:40:12.558Z,16.40
2019-05-14T23:43:02.865Z,17.87
2019-05-14T23:45:53.054Z,17.07
2019-05-14T23:48:43.359Z,17.27
2019-05-14T23:51:33.791Z,17.53
2019-05-14T23:54:24.486Z,17.43
2019-05-14T23:57:14.778Z,17.60
